sensor_id;sensor_type;location;lat;lon;timestamp;P1;durP1;ratioP1;P2;durP2;ratioP2
52668;SDS011;59898;52.786;6.892;2022-08-20T00:01:09;11.82;;;9.23;;
52668;SDS011;59898;52.786;6.892;2022-08-20T00:04:30;14.90;;;9.77;;
52668;SDS011;59898;52.786;6.892;2022-08-20T00:07:51;11.95;;;9.38;;
52668;SDS011;59898;52.786;6.892;2022-08-20T00:11:13;7.03;;;6.28;;
52668;SDS011;59898;52.786;6.892;2022-08-20T00:14:38;7.05;;;5.22;;
52668;SDS011;59898;52.786;6.892;2022-08-20T00:17:59;6.35;;;5.55;;
52668;SDS011;59898;52.786;6.892;2022-08-20T00:21:20;14.18;;;8.73;;
52668;SDS011;59898;52.786;6.892;2022-08-20T00:24:41;6.20;;;5.47;;
52668;SDS011;59898;52.786;6.892;2022-08-20T00:28:02;6.80;;;5.50;;
52668;SDS011;59898;52.786;6.892;2022-08-20T00:31:22;6.68;;;5.60;;
52668;SDS011;59898;52.786;6.892;2022-08-20T00:34:44;7.38;;;5.05;;
52668;SDS011;59898;52.786;6.892;2022-08-20T00:38:04;7.68;;;5.75;;
52668;SDS011;59898;52.786;6.892;2022-08-20T00:41:25;11.02;;;8.68;;
52668;SDS011;59898;52.786;6.892;2022-08-20T00:44:47;10.90;;;9.27;;
52668;SDS011;59898;52.786;6.892;2022-08-20T00:48:07;11.43;;;9.00;;
52668;SDS011;59898;52.786;6.892;2022-08-20T00:51:38;12.00;;;10.70;;
52668;SDS011;59898;52.786;6.892;2022-08-20T00:55:20;11.55;;;10.35;;
52668;SDS011;59898;52.786;6.892;2022-08-20T00:58:43;16.65;;;10.55;;
52668;SDS011;59898;52.786;6.892;2022-08-20T01:02:05;16.45;;;10.35;;
52668;SDS011;59898;52.786;6.892;2022-08-20T01:05:29;12.23;;;10.10;;
52668;SDS011;59898;52.786;6.892;2022-08-20T01:08:50;12.90;;;10.73;;
52668;SDS011;59898;52.786;6.892;2022-08-20T01:12:11;11.93;;;10.73;;
52668;SDS011;59898;52.786;6.892;2022-08-20T01:15:33;13.93;;;10.45;;
52668;SDS011;59898;52.786;6.892;2022-08-20T01:18:55;14.47;;;9.90;;
52668;SDS011;59898;52.786;6.892;2022-08-20T01:22:19;15.38;;;11.13;;
52668;SDS011;59898;52.786;6.892;2022-08-20T01:26:22;12.23;;;10.40;;
52668;SDS011;59898;52.786;6.892;2022-08-20T01:29:46;12.57;;;9.90;;
52668;SDS011;59898;52.786;6.892;2022-08-20T01:33:07;12.27;;;11.02;;
52668;SDS011;59898;52.786;6.892;2022-08-20T01:36:38;12.45;;;10.82;;
52668;SDS011;59898;52.786;6.892;2022-08-20T01:40:03;12.65;;;9.75;;
52668;SDS011;59898;52.786;6.892;2022-08-20T01:43:31;14.20;;;10.70;;
52668;SDS011;59898;52.786;6.892;2022-08-20T01:46:52;16.55;;;10.80;;
52668;SDS011;59898;52.786;6.892;2022-08-20T01:50:16;12.27;;;9.32;;
52668;SDS011;59898;52.786;6.892;2022-08-20T01:53:45;13.90;;;10.32;;
52668;SDS011;59898;52.786;6.892;2022-08-20T01:57:12;16.38;;;9.93;;
52668;SDS011;59898;52.786;6.892;2022-08-20T02:00:34;12.25;;;9.23;;
52668;SDS011;59898;52.786;6.892;2022-08-20T02:03:55;11.93;;;9.15;;
52668;SDS011;59898;52.786;6.892;2022-08-20T02:07:17;16.33;;;10.85;;
52668;SDS011;59898;52.786;6.892;2022-08-20T02:10:40;16.75;;;10.48;;
52668;SDS011;59898;52.786;6.892;2022-08-20T02:14:01;16.67;;;10.23;;
52668;SDS011;59898;52.786;6.892;2022-08-20T02:17:25;13.85;;;9.82;;
52668;SDS011;59898;52.786;6.892;2022-08-20T02:20:46;18.90;;;10.60;;
52668;SDS011;59898;52.786;6.892;2022-08-20T02:24:09;13.43;;;9.35;;
52668;SDS011;59898;52.786;6.892;2022-08-20T02:27:30;14.45;;;9.30;;
52668;SDS011;59898;52.786;6.892;2022-08-20T02:30:52;15.63;;;10.85;;
52668;SDS011;59898;52.786;6.892;2022-08-20T02:34:14;15.10;;;8.40;;
52668;SDS011;59898;52.786;6.892;2022-08-20T02:37:35;16.92;;;9.18;;
52668;SDS011;59898;52.786;6.892;2022-08-20T02:40:56;13.27;;;9.02;;
52668;SDS011;59898;52.786;6.892;2022-08-20T02:44:17;11.88;;;8.98;;
52668;SDS011;59898;52.786;6.892;2022-08-20T02:47:40;15.25;;;9.10;;
52668;SDS011;59898;52.786;6.892;2022-08-20T02:51:03;13.18;;;9.30;;
52668;SDS011;59898;52.786;6.892;2022-08-20T02:54:25;13.20;;;8.70;;
52668;SDS011;59898;52.786;6.892;2022-08-20T02:57:46;16.73;;;8.77;;
52668;SDS011;59898;52.786;6.892;2022-08-20T03:01:08;12.73;;;8.75;;
52668;SDS011;59898;52.786;6.892;2022-08-20T03:04:31;11.55;;;8.10;;
52668;SDS011;59898;52.786;6.892;2022-08-20T03:07:52;14.30;;;8.65;;
52668;SDS011;59898;52.786;6.892;2022-08-20T03:11:15;14.23;;;8.05;;
52668;SDS011;59898;52.786;6.892;2022-08-20T03:14:36;12.48;;;7.28;;
52668;SDS011;59898;52.786;6.892;2022-08-20T03:17:57;11.25;;;7.13;;
52668;SDS011;59898;52.786;6.892;2022-08-20T03:21:18;10.00;;;8.38;;
52668;SDS011;59898;52.786;6.892;2022-08-20T03:24:39;11.68;;;8.07;;
52668;SDS011;59898;52.786;6.892;2022-08-20T03:28:00;15.43;;;8.90;;
52668;SDS011;59898;52.786;6.892;2022-08-20T03:31:21;15.35;;;8.25;;
52668;SDS011;59898;52.786;6.892;2022-08-20T03:34:41;21.25;;;9.27;;
52668;SDS011;59898;52.786;6.892;2022-08-20T03:38:06;11.50;;;7.88;;
52668;SDS011;59898;52.786;6.892;2022-08-20T03:41:29;12.48;;;8.52;;
52668;SDS011;59898;52.786;6.892;2022-08-20T03:44:51;13.45;;;7.88;;
52668;SDS011;59898;52.786;6.892;2022-08-20T03:48:14;11.35;;;8.57;;
52668;SDS011;59898;52.786;6.892;2022-08-20T03:51:36;17.00;;;8.55;;
52668;SDS011;59898;52.786;6.892;2022-08-20T03:54:57;10.35;;;9.10;;
52668;SDS011;59898;52.786;6.892;2022-08-20T03:58:18;10.80;;;8.38;;
52668;SDS011;59898;52.786;6.892;2022-08-20T04:01:38;13.70;;;7.78;;
52668;SDS011;59898;52.786;6.892;2022-08-20T04:04:59;13.02;;;8.60;;
52668;SDS011;59898;52.786;6.892;2022-08-20T04:08:22;14.70;;;8.32;;
52668;SDS011;59898;52.786;6.892;2022-08-20T04:11:45;13.30;;;8.48;;
52668;SDS011;59898;52.786;6.892;2022-08-20T04:15:08;10.60;;;7.82;;
52668;SDS011;59898;52.786;6.892;2022-08-20T04:18:31;13.27;;;8.25;;
52668;SDS011;59898;52.786;6.892;2022-08-20T04:21:53;11.20;;;7.73;;
52668;SDS011;59898;52.786;6.892;2022-08-20T04:25:13;14.05;;;7.57;;
52668;SDS011;59898;52.786;6.892;2022-08-20T04:28:34;8.40;;;6.95;;
52668;SDS011;59898;52.786;6.892;2022-08-20T04:31:55;14.90;;;8.15;;
52668;SDS011;59898;52.786;6.892;2022-08-20T04:35:16;12.48;;;7.30;;
52668;SDS011;59898;52.786;6.892;2022-08-20T04:38:37;17.35;;;6.75;;
52668;SDS011;59898;52.786;6.892;2022-08-20T04:41:58;11.95;;;7.45;;
52668;SDS011;59898;52.786;6.892;2022-08-20T04:45:18;21.35;;;8.27;;
52668;SDS011;59898;52.786;6.892;2022-08-20T04:48:41;12.23;;;7.85;;
52668;SDS011;59898;52.786;6.892;2022-08-20T04:52:01;14.32;;;7.80;;
52668;SDS011;59898;52.786;6.892;2022-08-20T04:55:22;9.93;;;6.65;;
52668;SDS011;59898;52.786;6.892;2022-08-20T04:58:43;14.10;;;9.20;;
52668;SDS011;59898;52.786;6.892;2022-08-20T05:02:07;13.80;;;7.82;;
52668;SDS011;59898;52.786;6.892;2022-08-20T05:05:28;16.45;;;7.63;;
52668;SDS011;59898;52.786;6.892;2022-08-20T05:08:50;11.77;;;8.35;;
52668;SDS011;59898;52.786;6.892;2022-08-20T05:12:11;11.40;;;7.25;;
52668;SDS011;59898;52.786;6.892;2022-08-20T05:15:35;5.32;;;3.30;;
52668;SDS011;59898;52.786;6.892;2022-08-20T05:18:57;4.82;;;3.53;;
52668;SDS011;59898;52.786;6.892;2022-08-20T05:22:18;6.47;;;4.25;;
52668;SDS011;59898;52.786;6.892;2022-08-20T05:25:39;9.05;;;5.45;;
52668;SDS011;59898;52.786;6.892;2022-08-20T05:29:01;12.07;;;4.07;;
52668;SDS011;59898;52.786;6.892;2022-08-20T05:32:24;8.95;;;4.03;;
52668;SDS011;59898;52.786;6.892;2022-08-20T05:35:45;7.70;;;3.88;;
52668;SDS011;59898;52.786;6.892;2022-08-20T05:39:07;8.57;;;3.83;;
52668;SDS011;59898;52.786;6.892;2022-08-20T05:42:29;6.45;;;4.40;;
52668;SDS011;59898;52.786;6.892;2022-08-20T05:45:49;7.15;;;3.58;;
52668;SDS011;59898;52.786;6.892;2022-08-20T05:49:17;10.77;;;4.10;;
52668;SDS011;59898;52.786;6.892;2022-08-20T05:52:39;8.43;;;4.00;;
52668;SDS011;59898;52.786;6.892;2022-08-20T05:56:01;14.33;;;4.07;;
52668;SDS011;59898;52.786;6.892;2022-08-20T05:59:22;8.50;;;3.55;;
52668;SDS011;59898;52.786;6.892;2022-08-20T06:02:44;7.80;;;3.53;;
52668;SDS011;59898;52.786;6.892;2022-08-20T06:06:23;6.20;;;3.88;;
52668;SDS011;59898;52.786;6.892;2022-08-20T06:09:44;5.32;;;3.80;;
52668;SDS011;59898;52.786;6.892;2022-08-20T06:13:05;8.93;;;4.18;;
52668;SDS011;59898;52.786;6.892;2022-08-20T06:16:25;10.90;;;4.68;;
52668;SDS011;59898;52.786;6.892;2022-08-20T06:19:46;7.88;;;3.58;;
52668;SDS011;59898;52.786;6.892;2022-08-20T06:23:07;5.93;;;3.10;;
52668;SDS011;59898;52.786;6.892;2022-08-20T06:26:28;5.93;;;3.53;;
52668;SDS011;59898;52.786;6.892;2022-08-20T06:29:49;9.38;;;3.90;;
52668;SDS011;59898;52.786;6.892;2022-08-20T06:33:10;5.78;;;3.17;;
52668;SDS011;59898;52.786;6.892;2022-08-20T06:36:31;5.45;;;2.90;;
52668;SDS011;59898;52.786;6.892;2022-08-20T06:39:53;6.10;;;3.33;;
52668;SDS011;59898;52.786;6.892;2022-08-20T06:43:14;6.75;;;3.50;;
52668;SDS011;59898;52.786;6.892;2022-08-20T06:46:35;4.50;;;3.55;;
52668;SDS011;59898;52.786;6.892;2022-08-20T06:49:56;6.78;;;3.33;;
52668;SDS011;59898;52.786;6.892;2022-08-20T06:53:18;7.30;;;4.05;;
52668;SDS011;59898;52.786;6.892;2022-08-20T06:56:39;9.70;;;3.63;;
52668;SDS011;59898;52.786;6.892;2022-08-20T07:00:00;6.47;;;2.80;;
52668;SDS011;59898;52.786;6.892;2022-08-20T07:03:24;6.97;;;3.63;;
52668;SDS011;59898;52.786;6.892;2022-08-20T07:06:45;6.55;;;3.38;;
52668;SDS011;59898;52.786;6.892;2022-08-20T07:10:06;5.85;;;3.13;;
52668;SDS011;59898;52.786;6.892;2022-08-20T07:13:28;7.75;;;2.80;;
52668;SDS011;59898;52.786;6.892;2022-08-20T07:16:50;8.07;;;2.83;;
52668;SDS011;59898;52.786;6.892;2022-08-20T07:20:11;4.85;;;2.90;;
52668;SDS011;59898;52.786;6.892;2022-08-20T07:23:34;8.02;;;3.17;;
52668;SDS011;59898;52.786;6.892;2022-08-20T07:26:55;8.60;;;3.22;;
52668;SDS011;59898;52.786;6.892;2022-08-20T07:30:19;7.15;;;2.80;;
52668;SDS011;59898;52.786;6.892;2022-08-20T07:34:01;4.07;;;2.42;;
52668;SDS011;59898;52.786;6.892;2022-08-20T07:37:22;6.90;;;2.60;;
52668;SDS011;59898;52.786;6.892;2022-08-20T07:40:43;11.27;;;3.47;;
52668;SDS011;59898;52.786;6.892;2022-08-20T07:44:04;6.95;;;3.53;;
52668;SDS011;59898;52.786;6.892;2022-08-20T07:47:25;7.47;;;2.90;;
52668;SDS011;59898;52.786;6.892;2022-08-20T07:50:45;6.75;;;2.65;;
52668;SDS011;59898;52.786;6.892;2022-08-20T07:54:09;6.35;;;2.42;;
52668;SDS011;59898;52.786;6.892;2022-08-20T07:57:29;8.40;;;2.70;;
52668;SDS011;59898;52.786;6.892;2022-08-20T08:00:50;6.50;;;3.05;;
52668;SDS011;59898;52.786;6.892;2022-08-20T08:04:11;7.40;;;2.78;;
52668;SDS011;59898;52.786;6.892;2022-08-20T08:07:32;10.18;;;3.55;;
52668;SDS011;59898;52.786;6.892;2022-08-20T08:10:57;7.78;;;3.17;;
52668;SDS011;59898;52.786;6.892;2022-08-20T08:14:23;7.03;;;2.55;;
52668;SDS011;59898;52.786;6.892;2022-08-20T08:17:46;3.08;;;2.33;;
52668;SDS011;59898;52.786;6.892;2022-08-20T08:21:08;6.57;;;2.53;;
52668;SDS011;59898;52.786;6.892;2022-08-20T08:24:32;12.68;;;2.92;;
52668;SDS011;59898;52.786;6.892;2022-08-20T08:27:53;8.40;;;3.05;;
52668;SDS011;59898;52.786;6.892;2022-08-20T08:31:13;13.43;;;2.85;;
52668;SDS011;59898;52.786;6.892;2022-08-20T08:34:35;6.57;;;2.85;;
52668;SDS011;59898;52.786;6.892;2022-08-20T08:37:56;6.15;;;2.60;;
52668;SDS011;59898;52.786;6.892;2022-08-20T08:44:41;4.32;;;2.47;;
52668;SDS011;59898;52.786;6.892;2022-08-20T08:48:03;7.65;;;2.85;;
52668;SDS011;59898;52.786;6.892;2022-08-20T08:51:29;6.15;;;2.50;;
52668;SDS011;59898;52.786;6.892;2022-08-20T08:54:58;6.80;;;2.27;;
52668;SDS011;59898;52.786;6.892;2022-08-20T08:58:22;4.60;;;2.60;;
52668;SDS011;59898;52.786;6.892;2022-08-20T09:01:43;8.18;;;2.60;;
52668;SDS011;59898;52.786;6.892;2022-08-20T09:05:13;7.10;;;2.80;;
52668;SDS011;59898;52.786;6.892;2022-08-20T09:08:38;4.60;;;2.42;;
52668;SDS011;59898;52.786;6.892;2022-08-20T09:12:16;11.10;;;3.03;;
52668;SDS011;59898;52.786;6.892;2022-08-20T09:15:39;3.40;;;2.28;;
52668;SDS011;59898;52.786;6.892;2022-08-20T09:18:59;8.10;;;2.28;;
52668;SDS011;59898;52.786;6.892;2022-08-20T09:22:21;4.68;;;2.30;;
52668;SDS011;59898;52.786;6.892;2022-08-20T09:25:44;49.95;;;18.20;;
52668;SDS011;59898;52.786;6.892;2022-08-20T09:29:05;10.23;;;3.95;;
52668;SDS011;59898;52.786;6.892;2022-08-20T09:32:26;8.50;;;2.30;;
52668;SDS011;59898;52.786;6.892;2022-08-20T09:35:46;5.03;;;2.50;;
52668;SDS011;59898;52.786;6.892;2022-08-20T09:39:07;6.38;;;2.50;;
52668;SDS011;59898;52.786;6.892;2022-08-20T09:42:32;5.00;;;2.57;;
52668;SDS011;59898;52.786;6.892;2022-08-20T09:45:54;7.88;;;2.35;;
52668;SDS011;59898;52.786;6.892;2022-08-20T09:49:15;5.03;;;2.33;;
52668;SDS011;59898;52.786;6.892;2022-08-20T09:52:40;3.92;;;2.15;;
52668;SDS011;59898;52.786;6.892;2022-08-20T09:56:05;5.47;;;2.55;;
52668;SDS011;59898;52.786;6.892;2022-08-20T09:59:26;4.85;;;2.20;;
52668;SDS011;59898;52.786;6.892;2022-08-20T10:02:48;7.35;;;2.33;;
52668;SDS011;59898;52.786;6.892;2022-08-20T10:06:09;5.35;;;2.20;;
52668;SDS011;59898;52.786;6.892;2022-08-20T10:09:31;4.40;;;2.20;;
52668;SDS011;59898;52.786;6.892;2022-08-20T10:16:13;5.90;;;2.05;;
52668;SDS011;59898;52.786;6.892;2022-08-20T10:19:34;3.40;;;1.88;;
52668;SDS011;59898;52.786;6.892;2022-08-20T10:22:54;6.47;;;2.13;;
52668;SDS011;59898;52.786;6.892;2022-08-20T10:26:15;3.30;;;2.20;;
52668;SDS011;59898;52.786;6.892;2022-08-20T10:29:36;4.35;;;1.90;;
52668;SDS011;59898;52.786;6.892;2022-08-20T10:32:57;6.47;;;3.70;;
52668;SDS011;59898;52.786;6.892;2022-08-20T10:36:17;3.63;;;2.42;;
52668;SDS011;59898;52.786;6.892;2022-08-20T10:39:38;5.68;;;2.45;;
52668;SDS011;59898;52.786;6.892;2022-08-20T10:42:59;6.13;;;2.00;;
52668;SDS011;59898;52.786;6.892;2022-08-20T10:46:20;6.18;;;1.75;;
52668;SDS011;59898;52.786;6.892;2022-08-20T10:49:40;4.35;;;2.25;;
52668;SDS011;59898;52.786;6.892;2022-08-20T10:53:01;5.85;;;2.75;;
52668;SDS011;59898;52.786;6.892;2022-08-20T10:56:22;4.72;;;2.00;;
52668;SDS011;59898;52.786;6.892;2022-08-20T10:59:44;3.15;;;1.90;;
52668;SDS011;59898;52.786;6.892;2022-08-20T11:03:06;4.43;;;2.05;;
52668;SDS011;59898;52.786;6.892;2022-08-20T11:06:27;3.72;;;1.80;;
52668;SDS011;59898;52.786;6.892;2022-08-20T11:09:48;6.97;;;2.90;;
52668;SDS011;59898;52.786;6.892;2022-08-20T11:13:09;6.25;;;2.22;;
52668;SDS011;59898;52.786;6.892;2022-08-20T11:16:31;8.38;;;2.90;;
52668;SDS011;59898;52.786;6.892;2022-08-20T11:19:52;7.13;;;2.60;;
52668;SDS011;59898;52.786;6.892;2022-08-20T11:23:14;6.05;;;2.47;;
52668;SDS011;59898;52.786;6.892;2022-08-20T11:26:35;5.35;;;2.00;;
52668;SDS011;59898;52.786;6.892;2022-08-20T11:29:55;3.92;;;2.05;;
52668;SDS011;59898;52.786;6.892;2022-08-20T11:33:16;4.32;;;2.20;;
52668;SDS011;59898;52.786;6.892;2022-08-20T11:36:37;5.28;;;2.65;;
52668;SDS011;59898;52.786;6.892;2022-08-20T11:39:59;5.88;;;2.33;;
52668;SDS011;59898;52.786;6.892;2022-08-20T11:43:19;5.13;;;2.10;;
52668;SDS011;59898;52.786;6.892;2022-08-20T11:46:40;3.88;;;2.10;;
52668;SDS011;59898;52.786;6.892;2022-08-20T11:50:02;4.30;;;2.38;;
52668;SDS011;59898;52.786;6.892;2022-08-20T11:53:28;5.97;;;2.15;;
52668;SDS011;59898;52.786;6.892;2022-08-20T11:56:50;5.70;;;2.30;;
52668;SDS011;59898;52.786;6.892;2022-08-20T12:00:13;8.10;;;2.70;;
52668;SDS011;59898;52.786;6.892;2022-08-20T12:03:40;4.85;;;2.85;;
52668;SDS011;59898;52.786;6.892;2022-08-20T12:07:07;5.75;;;2.47;;
52668;SDS011;59898;52.786;6.892;2022-08-20T12:10:34;8.13;;;2.72;;
52668;SDS011;59898;52.786;6.892;2022-08-20T12:13:55;6.35;;;2.10;;
52668;SDS011;59898;52.786;6.892;2022-08-20T12:17:17;4.68;;;1.90;;
52668;SDS011;59898;52.786;6.892;2022-08-20T12:20:43;4.95;;;2.25;;
52668;SDS011;59898;52.786;6.892;2022-08-20T12:24:03;6.35;;;2.67;;
52668;SDS011;59898;52.786;6.892;2022-08-20T12:27:28;5.82;;;2.88;;
52668;SDS011;59898;52.786;6.892;2022-08-20T12:30:50;5.68;;;2.33;;
52668;SDS011;59898;52.786;6.892;2022-08-20T12:34:10;4.22;;;2.20;;
52668;SDS011;59898;52.786;6.892;2022-08-20T12:37:31;5.43;;;2.10;;
52668;SDS011;59898;52.786;6.892;2022-08-20T12:40:52;7.03;;;2.30;;
52668;SDS011;59898;52.786;6.892;2022-08-20T12:44:13;4.18;;;3.15;;
52668;SDS011;59898;52.786;6.892;2022-08-20T12:47:38;5.18;;;2.33;;
52668;SDS011;59898;52.786;6.892;2022-08-20T12:51:01;7.20;;;2.42;;
52668;SDS011;59898;52.786;6.892;2022-08-20T12:54:21;4.18;;;2.15;;
52668;SDS011;59898;52.786;6.892;2022-08-20T12:57:44;4.57;;;2.53;;
52668;SDS011;59898;52.786;6.892;2022-08-20T13:01:07;5.60;;;2.20;;
52668;SDS011;59898;52.786;6.892;2022-08-20T13:04:28;6.28;;;2.10;;
52668;SDS011;59898;52.786;6.892;2022-08-20T13:07:49;7.13;;;2.67;;
52668;SDS011;59898;52.786;6.892;2022-08-20T13:11:10;4.60;;;2.50;;
52668;SDS011;59898;52.786;6.892;2022-08-20T13:14:31;4.78;;;2.33;;
52668;SDS011;59898;52.786;6.892;2022-08-20T13:17:52;7.28;;;3.00;;
52668;SDS011;59898;52.786;6.892;2022-08-20T13:21:14;4.00;;;2.33;;
52668;SDS011;59898;52.786;6.892;2022-08-20T13:24:35;3.85;;;2.00;;
52668;SDS011;59898;52.786;6.892;2022-08-20T13:27:57;4.47;;;2.30;;
52668;SDS011;59898;52.786;6.892;2022-08-20T13:31:19;8.93;;;2.15;;
52668;SDS011;59898;52.786;6.892;2022-08-20T13:34:40;7.55;;;4.25;;
52668;SDS011;59898;52.786;6.892;2022-08-20T13:38:01;5.90;;;2.63;;
52668;SDS011;59898;52.786;6.892;2022-08-20T13:41:21;5.50;;;2.33;;
52668;SDS011;59898;52.786;6.892;2022-08-20T13:44:42;4.75;;;2.10;;
52668;SDS011;59898;52.786;6.892;2022-08-20T13:48:04;4.80;;;2.28;;
52668;SDS011;59898;52.786;6.892;2022-08-20T13:51:25;3.30;;;2.45;;
52668;SDS011;59898;52.786;6.892;2022-08-20T13:54:46;7.72;;;2.63;;
52668;SDS011;59898;52.786;6.892;2022-08-20T13:58:06;7.43;;;2.63;;
52668;SDS011;59898;52.786;6.892;2022-08-20T14:01:27;4.82;;;2.88;;
52668;SDS011;59898;52.786;6.892;2022-08-20T14:04:48;4.78;;;2.83;;
52668;SDS011;59898;52.786;6.892;2022-08-20T14:08:14;5.82;;;2.42;;
52668;SDS011;59898;52.786;6.892;2022-08-20T14:11:35;3.78;;;2.45;;
52668;SDS011;59898;52.786;6.892;2022-08-20T14:14:55;4.97;;;3.33;;
52668;SDS011;59898;52.786;6.892;2022-08-20T14:18:16;6.05;;;2.55;;
52668;SDS011;59898;52.786;6.892;2022-08-20T14:21:37;4.13;;;2.70;;
52668;SDS011;59898;52.786;6.892;2022-08-20T14:24:58;4.45;;;2.33;;
52668;SDS011;59898;52.786;6.892;2022-08-20T14:28:23;4.35;;;2.30;;
52668;SDS011;59898;52.786;6.892;2022-08-20T14:31:44;6.13;;;2.60;;
52668;SDS011;59898;52.786;6.892;2022-08-20T14:35:04;5.40;;;2.28;;
52668;SDS011;59898;52.786;6.892;2022-08-20T14:38:26;8.70;;;2.90;;
52668;SDS011;59898;52.786;6.892;2022-08-20T14:41:47;5.35;;;2.60;;
52668;SDS011;59898;52.786;6.892;2022-08-20T14:45:08;5.30;;;2.42;;
52668;SDS011;59898;52.786;6.892;2022-08-20T14:48:30;6.47;;;2.30;;
52668;SDS011;59898;52.786;6.892;2022-08-20T14:51:51;6.22;;;2.63;;
52668;SDS011;59898;52.786;6.892;2022-08-20T14:55:13;4.80;;;2.55;;
52668;SDS011;59898;52.786;6.892;2022-08-20T14:58:35;4.30;;;2.40;;
52668;SDS011;59898;52.786;6.892;2022-08-20T15:01:56;3.95;;;2.40;;
52668;SDS011;59898;52.786;6.892;2022-08-20T15:05:17;5.78;;;2.33;;
52668;SDS011;59898;52.786;6.892;2022-08-20T15:08:38;4.53;;;2.30;;
52668;SDS011;59898;52.786;6.892;2022-08-20T15:11:59;6.13;;;2.47;;
52668;SDS011;59898;52.786;6.892;2022-08-20T15:15:19;6.18;;;2.85;;
52668;SDS011;59898;52.786;6.892;2022-08-20T15:18:40;7.57;;;2.95;;
52668;SDS011;59898;52.786;6.892;2022-08-20T15:22:02;6.10;;;3.00;;
52668;SDS011;59898;52.786;6.892;2022-08-20T15:25:24;6.88;;;2.42;;
52668;SDS011;59898;52.786;6.892;2022-08-20T15:28:48;5.70;;;2.60;;
52668;SDS011;59898;52.786;6.892;2022-08-20T15:32:08;4.70;;;2.55;;
52668;SDS011;59898;52.786;6.892;2022-08-20T15:35:29;8.82;;;3.78;;
52668;SDS011;59898;52.786;6.892;2022-08-20T15:38:50;5.50;;;2.65;;
52668;SDS011;59898;52.786;6.892;2022-08-20T15:42:11;5.63;;;2.75;;
52668;SDS011;59898;52.786;6.892;2022-08-20T15:45:33;6.35;;;2.83;;
52668;SDS011;59898;52.786;6.892;2022-08-20T15:48:54;4.03;;;2.55;;
52668;SDS011;59898;52.786;6.892;2022-08-20T15:52:15;3.83;;;2.28;;
52668;SDS011;59898;52.786;6.892;2022-08-20T15:55:39;7.57;;;2.50;;
52668;SDS011;59898;52.786;6.892;2022-08-20T16:06:27;4.07;;;2.50;;
52668;SDS011;59898;52.786;6.892;2022-08-20T16:10:03;4.78;;;2.47;;
52668;SDS011;59898;52.786;6.892;2022-08-20T16:13:47;7.30;;;2.97;;
52668;SDS011;59898;52.786;6.892;2022-08-20T16:17:31;8.38;;;2.63;;
52668;SDS011;59898;52.786;6.892;2022-08-20T16:20:56;8.98;;;3.38;;
52668;SDS011;59898;52.786;6.892;2022-08-20T16:24:17;6.78;;;3.10;;
52668;SDS011;59898;52.786;6.892;2022-08-20T16:27:53;4.53;;;2.25;;
52668;SDS011;59898;52.786;6.892;2022-08-20T16:31:34;9.57;;;3.03;;
52668;SDS011;59898;52.786;6.892;2022-08-20T16:39:21;6.93;;;2.67;;
52668;SDS011;59898;52.786;6.892;2022-08-20T16:42:24;4.22;;;2.47;;
52668;SDS011;59898;52.786;6.892;2022-08-20T16:45:54;8.25;;;2.80;;
52668;SDS011;59898;52.786;6.892;2022-08-20T16:49:21;5.28;;;2.30;;
52668;SDS011;59898;52.786;6.892;2022-08-20T16:52:46;5.38;;;3.28;;
52668;SDS011;59898;52.786;6.892;2022-08-20T16:56:07;10.70;;;3.03;;
52668;SDS011;59898;52.786;6.892;2022-08-20T16:59:28;5.30;;;3.00;;
52668;SDS011;59898;52.786;6.892;2022-08-20T17:06:13;10.07;;;2.95;;
52668;SDS011;59898;52.786;6.892;2022-08-20T17:09:47;6.47;;;2.88;;
52668;SDS011;59898;52.786;6.892;2022-08-20T17:16:36;8.57;;;2.97;;
52668;SDS011;59898;52.786;6.892;2022-08-20T17:20:04;8.07;;;2.85;;
52668;SDS011;59898;52.786;6.892;2022-08-20T17:23:32;3.75;;;2.20;;
52668;SDS011;59898;52.786;6.892;2022-08-20T17:30:25;4.70;;;2.95;;
52668;SDS011;59898;52.786;6.892;2022-08-20T17:33:53;8.00;;;3.28;;
52668;SDS011;59898;52.786;6.892;2022-08-20T17:37:24;4.88;;;2.60;;
52668;SDS011;59898;52.786;6.892;2022-08-20T17:40:49;7.32;;;3.13;;
52668;SDS011;59898;52.786;6.892;2022-08-20T17:44:20;12.02;;;3.47;;
52668;SDS011;59898;52.786;6.892;2022-08-20T17:47:44;5.75;;;2.97;;
52668;SDS011;59898;52.786;6.892;2022-08-20T17:51:07;6.57;;;3.10;;
52668;SDS011;59898;52.786;6.892;2022-08-20T17:54:38;15.52;;;8.48;;
52668;SDS011;59898;52.786;6.892;2022-08-20T17:58:03;11.30;;;6.53;;
52668;SDS011;59898;52.786;6.892;2022-08-20T18:01:29;12.10;;;4.20;;
52668;SDS011;59898;52.786;6.892;2022-08-20T18:04:50;8.85;;;3.65;;
52668;SDS011;59898;52.786;6.892;2022-08-20T18:11:39;7.55;;;3.15;;
52668;SDS011;59898;52.786;6.892;2022-08-20T18:19:12;10.05;;;3.70;;
52668;SDS011;59898;52.786;6.892;2022-08-20T18:22:48;10.02;;;3.75;;
52668;SDS011;59898;52.786;6.892;2022-08-20T18:26:21;8.43;;;3.45;;
52668;SDS011;59898;52.786;6.892;2022-08-20T18:30:20;4.65;;;2.85;;
52668;SDS011;59898;52.786;6.892;2022-08-20T18:33:42;5.33;;;3.17;;
52668;SDS011;59898;52.786;6.892;2022-08-20T18:37:19;7.05;;;3.42;;
52668;SDS011;59898;52.786;6.892;2022-08-20T18:40:44;4.40;;;2.72;;
52668;SDS011;59898;52.786;6.892;2022-08-20T18:44:25;10.00;;;3.13;;
52668;SDS011;59898;52.786;6.892;2022-08-20T18:47:49;5.57;;;3.05;;
52668;SDS011;59898;52.786;6.892;2022-08-20T18:51:09;6.00;;;3.42;;
52668;SDS011;59898;52.786;6.892;2022-08-20T18:54:31;8.07;;;3.37;;
52668;SDS011;59898;52.786;6.892;2022-08-20T18:57:54;8.35;;;3.63;;
52668;SDS011;59898;52.786;6.892;2022-08-20T19:01:19;6.53;;;2.80;;
52668;SDS011;59898;52.786;6.892;2022-08-20T19:04:40;6.93;;;3.00;;
52668;SDS011;59898;52.786;6.892;2022-08-20T19:08:02;3.90;;;2.70;;
52668;SDS011;59898;52.786;6.892;2022-08-20T19:15:14;8.40;;;3.15;;
52668;SDS011;59898;52.786;6.892;2022-08-20T19:22:11;11.65;;;4.15;;
52668;SDS011;59898;52.786;6.892;2022-08-20T19:25:36;7.70;;;3.38;;
52668;SDS011;59898;52.786;6.892;2022-08-20T19:29:00;8.98;;;3.65;;
52668;SDS011;59898;52.786;6.892;2022-08-20T19:32:28;7.35;;;3.72;;
52668;SDS011;59898;52.786;6.892;2022-08-20T19:35:50;6.13;;;4.13;;
52668;SDS011;59898;52.786;6.892;2022-08-20T19:39:12;11.43;;;4.05;;
52668;SDS011;59898;52.786;6.892;2022-08-20T19:42:41;10.43;;;4.07;;
52668;SDS011;59898;52.786;6.892;2022-08-20T19:46:02;7.53;;;3.38;;
52668;SDS011;59898;52.786;6.892;2022-08-20T19:49:28;13.52;;;4.93;;
52668;SDS011;59898;52.786;6.892;2022-08-20T19:56:26;10.75;;;3.28;;
52668;SDS011;59898;52.786;6.892;2022-08-20T19:59:51;9.60;;;3.63;;
52668;SDS011;59898;52.786;6.892;2022-08-20T20:03:22;9.02;;;3.78;;
52668;SDS011;59898;52.786;6.892;2022-08-20T20:06:46;8.40;;;3.53;;
52668;SDS011;59898;52.786;6.892;2022-08-20T20:10:08;14.25;;;8.80;;
52668;SDS011;59898;52.786;6.892;2022-08-20T20:13:38;15.48;;;8.20;;
52668;SDS011;59898;52.786;6.892;2022-08-20T20:16:59;7.93;;;4.20;;
52668;SDS011;59898;52.786;6.892;2022-08-20T20:20:24;8.35;;;3.97;;
52668;SDS011;59898;52.786;6.892;2022-08-20T20:23:58;11.88;;;4.90;;
52668;SDS011;59898;52.786;6.892;2022-08-20T20:27:20;8.50;;;3.22;;
52668;SDS011;59898;52.786;6.892;2022-08-20T20:30:44;9.88;;;3.88;;
52668;SDS011;59898;52.786;6.892;2022-08-20T20:34:08;9.73;;;3.65;;
52668;SDS011;59898;52.786;6.892;2022-08-20T20:40:55;7.13;;;3.38;;
52668;SDS011;59898;52.786;6.892;2022-08-20T20:44:22;8.90;;;3.42;;
52668;SDS011;59898;52.786;6.892;2022-08-20T20:47:47;10.60;;;3.22;;
52668;SDS011;59898;52.786;6.892;2022-08-20T20:51:32;9.23;;;3.50;;
52668;SDS011;59898;52.786;6.892;2022-08-20T20:58:26;6.10;;;2.95;;
52668;SDS011;59898;52.786;6.892;2022-08-20T21:01:47;7.70;;;3.42;;
52668;SDS011;59898;52.786;6.892;2022-08-20T21:05:08;5.60;;;2.78;;
52668;SDS011;59898;52.786;6.892;2022-08-20T21:08:30;32.88;;;24.75;;
52668;SDS011;59898;52.786;6.892;2022-08-20T21:11:50;19.98;;;14.60;;